Time;durP1;ratioP1;P1;durP2;ratioP2;P2;SDS_P1;SDS_P2;PMS_P1;PMS_P2;Temp;Humidity;BMP_temperature;BMP_pressure;BME280_temperature;BME280_humidity;BME280_pressure;Samples;Min_cycle;Max_cycle;Signal;HPM_P1;HPM_P2
2022/08/14 00:01:30;;;;;;;13.80;8.57;;;;;;;17.68;71.98;101136.09;5073463;28;20484;-77
2022/08/14 00:03:56;;;;;;;10.57;8.52;;;;;;;17.48;71.80;101103.88;5055867;28;20032;-77
2022/08/14 00:06:21;;;;;;;10.88;8.70;;;;;;;17.69;71.90;101133.38;5073545;28;20376;-78
2022/08/14 00:08:46;;;;;;;13.07;9.32;;;;;;;17.65;71.04;101131.97;5073554;28;20028;-77
2022/08/14 00:11:12;;;;;;;11.57;9.20;;;;;;;17.61;72.18;101135.81;5073904;28;20032;-77
2022/08/14 00:13:38;;;;;;;13.05;9.48;;;;;;;17.55;72.17;101136.34;5073886;28;20040;-77
2022/08/14 00:16:03;;;;;;;12.45;9.32;;;;;;;17.47;71.09;101115.28;5073594;28;20025;-77
2022/08/14 00:18:29;;;;;;;12.38;9.90;;;;;;;17.60;70.84;101131.56;5073569;28;20578;-77
2022/08/14 00:20:55;;;;;;;13.57;9.60;;;;;;;17.64;69.81;101124.28;5073193;28;20376;-77
2022/08/14 00:23:21;;;;;;;11.77;9.43;;;;;;;17.67;68.83;101121.38;5073334;28;20074;-77
2022/08/14 00:25:50;;;;;;;10.63;9.23;;;;;;;17.54;69.90;101094.72;5073500;28;20427;-77
2022/08/14 00:28:16;;;;;;;10.82;9.73;;;;;;;17.64;70.61;101119.06;5055413;28;20028;-77
2022/08/14 00:30:42;;;;;;;11.55;10.32;;;;;;;17.71;68.97;101112.38;5073391;28;20423;-77
2022/08/14 00:33:10;;;;;;;11.95;10.30;;;;;;;17.75;69.16;101103.28;5032637;28;1160246;-77
2022/08/14 00:35:36;;;;;;;13.25;10.55;;;;;;;17.77;68.69;101098.75;5074363;28;20085;-78
2022/08/14 00:38:01;;;;;;;11.52;9.68;;;;;;;17.76;68.25;101099.72;5074209;28;20478;-77
2022/08/14 00:40:27;;;;;;;12.02;10.02;;;;;;;17.77;69.18;101096.13;5074250;28;20102;-77
2022/08/14 00:42:52;;;;;;;14.05;10.05;;;;;;;17.71;69.14;101097.50;5074217;28;20082;-77
2022/08/14 00:45:18;;;;;;;12.30;10.10;;;;;;;17.76;67.87;101089.25;5074183;28;20025;-77
2022/08/14 00:47:46;;;;;;;11.52;9.93;;;;;;;17.63;69.99;101092.09;5073884;28;20433;-77
2022/08/14 00:50:16;;;;;;;14.85;9.70;;;;;;;17.58;69.43;101090.84;5073739;28;20043;-77
2022/08/14 00:52:44;;;;;;;12.90;9.70;;;;;;;17.42;69.94;101050.44;5073806;28;20074;-77
2022/08/14 00:55:10;;;;;;;10.68;9.55;;;;;;;17.64;69.97;101079.88;5073880;28;20050;-77
2022/08/14 00:57:37;;;;;;;13.55;9.70;;;;;;;17.50;71.17;101088.91;5073877;28;20075;-77
2022/08/14 01:00:10;;;;;;;12.38;10.02;;;;;;;17.58;69.76;101080.41;5073372;28;20032;-78
2022/08/14 01:02:36;;;;;;;11.20;9.15;;;;;;;17.25;69.13;101026.78;5073559;28;20029;-77
2022/08/14 01:05:06;;;;;;;13.35;9.73;;;;;;;17.54;69.69;101076.44;5073880;28;20426;-77
2022/08/14 01:07:32;;;;;;;11.13;9.93;;;;;;;17.55;70.36;101073.69;5073567;28;20024;-77
2022/08/14 01:10:00;;;;;;;13.27;10.13;;;;;;;17.45;70.62;101067.63;5073728;28;20024;-77
2022/08/14 01:12:27;;;;;;;14.45;10.32;;;;;;;17.48;70.10;101060.31;5073587;28;20032;-77
2022/08/14 01:14:54;;;;;;;13.85;10.70;;;;;;;17.46;68.77;101041.38;5073464;28;20075;-77
2022/08/14 01:21:02;;;;;;;12.20;10.75;;;;;;;17.49;68.94;101041.09;5073423;28;20024;-76
2022/08/14 01:22:53;;;;;;;13.68;10.73;;;;;;;17.73;67.92;101052.97;5073605;28;20038;-77
2022/08/14 01:25:19;;;;;;;14.15;11.40;;;;;;;17.56;69.42;101024.88;5073227;28;20100;-77
2022/08/14 01:27:45;;;;;;;12.63;10.52;;;;;;;17.68;69.30;101042.88;5073192;28;20081;-77
2022/08/14 01:30:11;;;;;;;13.10;10.93;;;;;;;17.58;69.46;101051.69;5073306;28;20027;-77
2022/08/14 01:32:37;;;;;;;12.45;10.52;;;;;;;17.53;69.42;101031.22;5073246;28;20028;-77
2022/08/14 01:35:07;;;;;;;13.48;10.73;;;;;;;17.53;68.04;101025.16;5072855;28;20170;-77
2022/08/14 01:37:32;;;;;;;11.88;10.38;;;;;;;17.60;68.26;101041.91;5073107;28;20395;-77
2022/08/14 01:40:00;;;;;;;14.13;10.70;;;;;;;17.51;70.02;101040.16;5073012;28;20028;-77
2022/08/14 01:42:27;;;;;;;13.75;11.05;;;;;;;17.45;69.88;101038.91;5072766;28;20035;-78
2022/08/14 01:44:57;;;;;;;12.45;10.70;;;;;;;17.40;70.79;101044.53;5054330;28;20032;-76
2022/08/14 01:47:23;;;;;;;12.95;11.10;;;;;;;17.40;68.73;101039.31;5073002;28;20021;-77
2022/08/14 01:49:52;;;;;;;15.40;11.57;;;;;;;17.28;70.95;101035.16;5072760;28;20043;-77
2022/08/14 01:52:17;;;;;;;12.57;10.13;;;;;;;17.19;70.18;101025.53;5072718;28;20384;-77
2022/08/14 01:54:43;;;;;;;13.60;11.85;;;;;;;16.98;72.04;101011.75;5072674;28;20036;-78
2022/08/14 01:57:10;;;;;;;12.18;10.77;;;;;;;17.16;70.81;101044.88;5072811;28;20028;-77
2022/08/14 01:59:39;;;;;;;13.10;11.48;;;;;;;17.05;70.65;101023.31;5072907;28;20036;-77
2022/08/14 02:02:13;;;;;;;13.73;11.50;;;;;;;17.15;69.87;101051.06;5072541;28;20031;-77
2022/08/14 02:04:40;;;;;;;12.98;11.45;;;;;;;17.04;72.13;101048.56;5072812;28;20028;-77
2022/08/14 02:07:08;;;;;;;13.65;11.13;;;;;;;16.97;70.40;101050.06;5072613;28;20578;-77
2022/08/14 02:09:37;;;;;;;12.98;11.45;;;;;;;16.87;71.76;101023.94;5072668;28;20017;-76
2022/08/14 02:12:05;;;;;;;14.00;12.52;;;;;;;16.76;73.04;101016.22;5072602;28;20029;-77
2022/08/14 02:14:30;;;;;;;15.20;11.20;;;;;;;16.85;72.68;101031.06;5072473;28;20027;-77
2022/08/14 02:16:56;;;;;;;13.68;11.60;;;;;;;16.84;72.32;101032.03;5072630;28;20020;-77
2022/08/14 02:19:25;;;;;;;13.60;12.07;;;;;;;16.75;74.13;101034.59;5072550;28;20082;-77
2022/08/14 02:21:57;;;;;;;13.40;11.52;;;;;;;16.76;73.32;101036.25;5072272;28;20026;-77
2022/08/14 02:24:24;;;;;;;13.05;11.40;;;;;;;16.43;74.30;100998.22;5072219;28;20540;-77
2022/08/14 02:26:51;;;;;;;16.80;12.70;;;;;;;16.53;74.95;101028.59;5072453;28;20081;-77
2022/08/14 02:29:21;;;;;;;13.23;11.40;;;;;;;16.56;74.92;101030.09;5072304;28;20097;-77
2022/08/14 02:31:49;;;;;;;17.13;11.48;;;;;;;16.50;73.95;101031.44;5072444;28;20395;-77
2022/08/14 02:34:23;;;;;;;15.40;12.05;;;;;;;16.39;75.51;101030.69;5072189;28;20137;-77
2022/08/14 02:36:51;;;;;;;14.40;12.38;;;;;;;16.27;75.96;101015.13;5072259;28;20040;-77
2022/08/14 02:39:18;;;;;;;14.23;12.27;;;;;;;16.38;75.29;101037.69;5072309;28;20028;-77
2022/08/14 02:41:44;;;;;;;13.70;11.93;;;;;;;16.35;75.67;101027.53;5072166;28;20384;-77
2022/08/14 02:44:10;;;;;;;15.80;12.27;;;;;;;16.25;76.22;101018.81;5072300;28;20016;-77
2022/08/14 02:46:38;;;;;;;14.10;12.32;;;;;;;16.18;75.92;101009.88;5072256;28;20031;-76
2022/08/14 02:49:05;;;;;;;13.75;11.80;;;;;;;16.19;76.60;101014.13;5072233;28;20020;-76
2022/08/14 02:51:31;;;;;;;15.70;12.80;;;;;;;16.12;76.69;101016.41;5072055;28;20530;-77
2022/08/14 02:53:57;;;;;;;15.95;13.07;;;;;;;16.14;76.93;101024.09;5071947;28;20033;-77
2022/08/14 02:56:24;;;;;;;15.27;12.90;;;;;;;16.10;77.12;101026.13;5071933;28;20415;-77
2022/08/14 02:58:50;;;;;;;14.85;12.80;;;;;;;15.97;77.41;101004.66;5072302;28;20032;-77
2022/08/14 03:01:18;;;;;;;17.40;13.27;;;;;;;16.05;77.57;101021.31;5072156;28;20025;-77
2022/08/14 03:03:45;;;;;;;16.83;13.98;;;;;;;16.01;77.88;101026.88;5072100;28;20438;-77
2022/08/14 03:06:12;;;;;;;16.25;14.02;;;;;;;15.98;77.96;101030.56;5072076;28;20025;-77
2022/08/14 03:08:39;;;;;;;17.17;13.88;;;;;;;15.82;78.39;101004.13;5070840;28;20488;-77
2022/08/14 03:11:08;;;;;;;16.55;13.70;;;;;;;15.81;78.56;101006.88;5072196;28;20028;-77
2022/08/14 03:13:35;;;;;;;16.58;13.88;;;;;;;15.81;78.38;101009.47;5072254;28;20074;-77
2022/08/14 03:16:05;;;;;;;15.95;13.70;;;;;;;15.81;78.29;101010.28;5072141;28;20032;-77
2022/08/14 03:18:31;;;;;;;18.88;13.95;;;;;;;15.75;78.76;101009.03;5072038;28;20021;-77
2022/08/14 03:21:01;;;;;;;16.52;13.35;;;;;;;15.64;78.97;101005.66;5071690;28;20383;-77
2022/08/14 03:23:26;;;;;;;14.55;12.65;;;;;;;15.59;79.05;101003.38;5071779;28;20029;-77
2022/08/14 03:25:52;;;;;;;15.25;13.07;;;;;;;15.60;79.49;101009.41;5075427;28;20404;-78
2022/08/14 03:28:17;;;;;;;15.45;13.70;;;;;;;15.58;79.50;101008.72;5075324;28;20029;-77
2022/08/14 03:30:42;;;;;;;15.40;13.00;;;;;;;15.53;79.64;101008.25;5075388;28;20025;-77
2022/08/14 03:33:10;;;;;;;16.00;14.13;;;;;;;15.45;80.24;101006.28;5075360;28;20048;-77
2022/08/14 03:35:37;;;;;;;15.63;13.80;;;;;;;15.44;80.31;101004.63;5075309;28;20033;-77
2022/08/14 03:38:10;;;;;;;17.98;14.45;;;;;;;15.40;80.41;101003.22;5075455;28;20027;-77
2022/08/14 03:40:39;;;;;;;18.52;14.90;;;;;;;15.32;81.09;100995.19;5075067;28;20040;-77
2022/08/14 03:43:09;;;;;;;17.58;14.73;;;;;;;15.30;80.95;101003.13;5075150;28;20048;-77
2022/08/14 03:45:37;;;;;;;15.10;13.48;;;;;;;15.30;81.46;100994.50;5075098;28;20029;-77
2022/08/14 03:48:18;;;;;;;16.10;13.60;;;;;;;15.24;80.98;100998.44;5075254;28;20024;-77
2022/08/14 03:50:48;;;;;;;15.05;13.43;;;;;;;15.19;81.28;100996.19;5075271;28;20029;-77
2022/08/14 03:53:14;;;;;;;17.38;15.35;;;;;;;15.04;81.80;100978.34;5074933;28;20028;-77
2022/08/14 03:55:42;;;;;;;16.92;14.10;;;;;;;15.10;81.97;100996.91;5075077;28;20024;-78
2022/08/14 03:58:09;;;;;;;16.13;14.23;;;;;;;14.98;82.04;100987.47;5056679;28;20040;-77
2022/08/14 04:00:36;;;;;;;16.67;14.75;;;;;;;15.02;82.54;100999.28;5074753;28;20082;-77
2022/08/14 04:03:04;;;;;;;17.38;15.57;;;;;;;14.91;82.35;100976.72;5074691;28;20495;-77
2022/08/14 04:05:31;;;;;;;19.60;14.60;;;;;;;14.86;82.42;100980.66;5075062;28;20029;-77
2022/08/14 04:07:57;;;;;;;16.13;14.43;;;;;;;14.94;82.31;101004.25;5074544;28;20028;-77
2022/08/14 04:10:23;;;;;;;16.45;14.75;;;;;;;14.87;82.58;100996.13;5074810;28;20079;-77
2022/08/14 04:12:48;;;;;;;17.48;15.63;;;;;;;14.89;83.16;101009.84;5074659;28;20021;-77
2022/08/14 04:15:15;;;;;;;16.83;15.02;;;;;;;14.84;82.90;101000.72;5074653;28;20083;-77
2022/08/14 04:17:42;;;;;;;17.52;15.07;;;;;;;14.66;82.97;100965.78;5074547;28;20529;-78
2022/08/14 04:20:08;;;;;;;18.13;16.23;;;;;;;14.79;83.07;100995.91;5074583;28;20452;-78
2022/08/14 04:22:34;;;;;;;17.73;15.40;;;;;;;14.67;83.47;100981.25;5074307;28;20071;-78
2022/08/14 04:25:00;;;;;;;17.20;15.27;;;;;;;14.76;83.68;100990.13;5074215;28;20052;-78
2022/08/14 04:27:26;;;;;;;21.48;16.17;;;;;;;14.72;83.60;100980.88;5073109;28;20028;-77
2022/08/14 04:29:52;;;;;;;19.35;16.20;;;;;;;14.66;84.09;100971.00;5074345;28;20127;-78
2022/08/14 04:32:19;;;;;;;17.27;15.45;;;;;;;14.83;84.05;100988.66;5074227;28;20090;-79
2022/08/14 04:34:44;;;;;;;16.77;13.38;;;;;;;15.00;84.22;100982.16;5073541;28;20044;-79
2022/08/14 04:45:39;;;;;;;20.05;15.52;;;;;;;14.99;82.67;100947.53;5074413;28;20063;-82
2022/08/14 04:48:11;;;;;;;22.90;15.48;;;;;;;15.16;82.37;100964.41;5074118;28;20035;-82
2022/08/14 04:50:45;;;;;;;18.95;15.35;;;;;;;15.20;82.03;100964.00;5073761;28;20082;-82
2022/08/14 04:53:12;;;;;;;19.83;15.15;;;;;;;15.28;82.07;100967.78;5074028;28;20406;-82
2022/08/14 04:55:40;;;;;;;19.55;16.02;;;;;;;15.20;81.98;100948.41;5073536;28;20024;-83
2022/08/14 04:58:05;;;;;;;19.77;16.20;;;;;;;15.17;81.57;100933.06;5073782;28;20424;-82
2022/08/14 05:00:31;;;;;;;19.50;15.73;;;;;;;15.42;81.81;100964.88;5073815;28;20086;-83
2022/08/14 05:02:58;;;;;;;18.92;15.68;;;;;;;15.46;81.75;100955.88;5073511;28;20078;-81
2022/08/14 05:05:23;;;;;;;19.30;15.85;;;;;;;15.53;82.02;100940.56;5073735;28;20086;-81
2022/08/14 05:07:50;;;;;;;18.27;16.27;;;;;;;15.63;81.08;100962.34;5073607;28;20028;-82
2022/08/14 05:10:16;;;;;;;20.90;17.23;;;;;;;15.47;80.88;100919.31;5073481;28;20032;-82
2022/08/14 05:12:41;;;;;;;19.27;16.75;;;;;;;15.67;80.85;100933.34;5073775;28;20039;-82
2022/08/14 05:15:07;;;;;;;20.30;18.15;;;;;;;15.58;80.19;100900.22;5073448;28;20017;-82
2022/08/14 05:17:32;;;;;;;18.95;16.50;;;;;;;15.96;80.15;100946.53;5073349;28;20082;-82
2022/08/14 05:20:01;;;;;;;19.48;16.67;;;;;;;15.91;79.96;100938.25;5073267;28;20052;-80
2022/08/14 05:22:27;;;;;;;18.45;16.52;;;;;;;15.96;79.71;100919.66;5073320;28;20033;-82
2022/08/14 05:24:53;;;;;;;19.83;16.10;;;;;;;15.93;79.62;100905.13;5072997;28;20059;-82
2022/08/14 05:27:19;;;;;;;21.10;16.15;;;;;;;16.22;79.99;100939.13;5073086;28;20040;-82
2022/08/14 05:29:46;;;;;;;20.30;15.95;;;;;;;16.33;79.33;100935.63;5073385;28;20380;-81
2022/08/14 05:32:12;;;;;;;20.48;16.85;;;;;;;16.58;78.96;100944.75;5073252;28;20111;-82
2022/08/14 05:34:37;;;;;;;19.88;17.23;;;;;;;16.50;79.11;100929.75;5072912;28;20464;-82
2022/08/14 05:37:02;;;;;;;21.20;16.17;;;;;;;16.71;78.98;100934.94;5073080;28;20029;-82
2022/08/14 05:39:28;;;;;;;19.90;16.65;;;;;;;16.86;78.82;100941.44;5073189;28;20376;-80
2022/08/14 05:41:55;;;;;;;19.58;17.15;;;;;;;17.13;77.47;100940.78;5072678;28;20105;-82
2022/08/14 05:44:21;;;;;;;20.55;16.63;;;;;;;17.46;76.19;100938.72;5073045;28;20028;-82
2022/08/14 05:46:47;;;;;;;19.63;17.35;;;;;;;17.77;74.96;100913.28;5053954;28;20066;-82
2022/08/14 05:49:13;;;;;;;22.33;19.70;;;;;;;18.60;71.73;100943.81;5072999;28;20028;-81
2022/08/14 05:51:41;;;;;;;24.30;14.73;;;;;;;19.40;69.53;100942.19;5072812;28;20024;-82
2022/08/14 05:54:06;;;;;;;18.77;16.13;;;;;;;20.87;65.42;100928.09;5072740;28;20054;-81
2022/08/14 05:56:32;;;;;;;20.40;17.35;;;;;;;22.47;58.89;100938.81;5072533;28;20099;-82
2022/08/14 05:59:01;;;;;;;19.17;15.05;;;;;;;23.78;55.63;100914.22;5054797;28;20068;-82
2022/08/14 06:01:27;;;;;;;18.75;14.50;;;;;;;24.86;50.91;100896.69;5054235;28;20036;-77
2022/08/14 06:03:52;;;;;;;20.13;16.65;;;;;;;25.56;49.62;100929.44;5072657;28;20031;-77
2022/08/14 06:06:18;;;;;;;19.05;16.73;;;;;;;26.33;46.75;100927.69;5072614;28;20059;-78
2022/08/14 06:08:43;;;;;;;18.25;15.88;;;;;;;26.96;44.95;100925.69;5072834;28;20032;-78
2022/08/14 06:11:09;;;;;;;19.20;17.20;;;;;;;27.43;43.54;100933.50;5072244;28;20494;-78
2022/08/14 06:13:37;;;;;;;19.67;15.77;;;;;;;27.70;42.90;100936.94;5072494;28;20033;-77
2022/08/14 06:16:03;;;;;;;16.08;13.38;;;;;;;28.06;42.40;100926.88;5072627;28;20096;-78
2022/08/14 06:18:29;;;;;;;17.65;15.60;;;;;;;28.46;40.88;100904.47;5072506;28;20451;-76
2022/08/14 06:20:54;;;;;;;17.58;15.68;;;;;;;28.80;39.95;100929.00;5072476;28;20131;-75
2022/08/14 06:23:20;;;;;;;17.00;14.77;;;;;;;29.05;39.45;100908.63;5072430;28;20032;-75
2022/08/14 06:25:45;;;;;;;20.67;15.82;;;;;;;29.48;38.24;100905.22;5072084;28;20040;-76
2022/08/14 06:28:18;;;;;;;15.02;13.27;;;;;;;29.84;39.54;100923.09;5072293;28;20049;-78
2022/08/14 06:30:44;;;;;;;15.93;13.27;;;;;;;30.09;37.25;100908.91;5072390;28;20028;-76
2022/08/14 06:33:09;;;;;;;17.15;14.55;;;;;;;30.30;36.68;100918.31;5072283;28;20033;-77
2022/08/14 06:35:34;;;;;;;17.80;14.95;;;;;;;30.11;36.73;100897.00;5072247;28;20037;-77
2022/08/14 06:38:00;;;;;;;15.38;13.85;;;;;;;30.72;35.69;100916.50;5072189;28;20119;-76
2022/08/14 06:40:32;;;;;;;16.35;14.63;;;;;;;30.47;37.54;100896.09;5072286;28;20029;-78
2022/08/14 06:43:00;;;;;;;16.10;13.80;;;;;;;30.81;35.19;100913.31;5048655;28;20026;-75
2022/08/14 06:45:27;;;;;;;15.93;14.25;;;;;;;30.59;35.93;100911.34;5053166;28;20389;-75
2022/08/14 06:47:52;;;;;;;17.90;12.18;;;;;;;31.21;34.93;100909.22;5052574;28;20376;-77
2022/08/14 06:50:20;;;;;;;16.23;13.35;;;;;;;31.17;34.74;100895.50;5052549;28;20028;-78
2022/08/14 06:52:46;;;;;;;17.88;13.95;;;;;;;31.25;34.23;100894.38;5052271;28;20526;-77
2022/08/14 06:55:16;;;;;;;15.77;14.15;;;;;;;31.09;34.85;100895.84;5052260;28;20020;-77
2022/08/14 06:57:44;;;;;;;16.65;13.93;;;;;;;31.19;34.40;100914.75;5052380;28;20166;-76
2022/08/14 07:00:21;;;;;;;16.45;13.77;;;;;;;31.47;35.39;100903.44;5054992;28;20048;-77
2022/08/14 07:05:48;;;;;;;15.23;13.60;;;;;;;32.37;33.14;100878.09;5056229;28;20036;-78
2022/08/14 07:08:17;;;;;;;15.90;14.30;;;;;;;32.25;32.37;100889.59;5054827;28;20025;-78
2022/08/14 07:10:47;;;;;;;15.63;13.98;;;;;;;31.93;33.82;100885.75;5055975;28;20029;-78
2022/08/14 07:13:13;;;;;;;15.63;13.70;;;;;;;31.84;33.10;100889.81;5054630;28;20032;-79
2022/08/14 07:15:44;;;;;;;16.05;14.23;;;;;;;31.38;33.67;100878.97;5055738;28;20021;-79
2022/08/14 07:18:11;;;;;;;16.58;12.52;;;;;;;31.73;34.45;100890.63;5055681;28;20025;-76
2022/08/14 07:20:37;;;;;;;15.35;12.82;;;;;;;32.37;33.37;100886.91;5054000;28;20132;-80
2022/08/14 07:23:05;;;;;;;13.57;12.15;;;;;;;32.43;33.58;100875.25;5055440;28;20099;-78
2022/08/14 07:25:31;;;;;;;14.77;13.05;;;;;;;31.36;34.10;100886.34;5055678;28;20029;-78
2022/08/14 07:27:56;;;;;;;15.25;12.98;;;;;;;29.80;36.52;100860.69;5055474;28;20024;-79
2022/08/14 07:30:22;;;;;;;16.77;14.07;;;;;;;28.56;39.64;100894.19;5055554;28;20400;-77
2022/08/14 07:32:48;;;;;;;17.25;14.43;;;;;;;27.57;40.89;100893.69;5055533;28;20033;-78
2022/08/14 07:35:14;;;;;;;17.70;14.40;;;;;;;26.71;43.02;100888.31;5095675;28;20427;-78
2022/08/14 07:37:40;;;;;;;16.05;14.30;;;;;;;26.19;44.84;100903.81;5095725;28;20028;-77
2022/08/14 07:40:06;;;;;;;18.83;15.20;;;;;;;25.69;45.33;100889.06;5095454;28;20020;-79
2022/08/14 07:42:31;;;;;;;20.27;14.93;;;;;;;25.40;47.13;100890.09;5095457;28;20035;-75
2022/08/14 07:44:58;;;;;;;15.77;13.90;;;;;;;25.10;47.58;100881.50;5075181;28;20426;-76
2022/08/14 07:47:23;;;;;;;17.33;14.60;;;;;;;25.08;48.51;100888.81;5075950;28;20017;-76
2022/08/14 07:50:00;;;;;;;19.38;15.70;;;;;;;25.02;48.42;100887.72;5075050;28;20031;-77
2022/08/14 07:52:26;;;;;;;18.55;15.38;;;;;;;24.89;50.37;100885.75;5075144;28;20036;-77
2022/08/14 07:54:53;;;;;;;17.77;15.52;;;;;;;24.88;49.43;100888.59;5075135;28;20035;-77
2022/08/14 07:57:19;;;;;;;18.15;15.90;;;;;;;24.64;49.66;100859.91;5074219;28;20031;-76
2022/08/14 07:59:45;;;;;;;19.42;16.10;;;;;;;24.58;49.63;100879.94;5057760;28;20115;-75
2022/08/14 08:02:12;;;;;;;20.50;15.05;;;;;;;24.54;50.78;100879.50;5075004;28;20120;-74
2022/08/14 08:04:43;;;;;;;20.65;15.75;;;;;;;24.47;50.82;100875.97;5074741;28;20048;-75
2022/08/14 08:07:09;;;;;;;18.70;14.20;;;;;;;24.59;51.34;100884.25;5074970;28;20036;-75
2022/08/14 08:09:35;;;;;;;19.98;15.98;;;;;;;24.71;50.45;100895.13;5074596;28;20075;-75
2022/08/14 08:12:01;;;;;;;16.40;14.38;;;;;;;24.77;50.71;100889.06;5074918;28;20380;-76
2022/08/14 08:14:27;;;;;;;17.25;14.68;;;;;;;24.85;50.73;100892.41;5074816;28;20047;-76
2022/08/14 08:16:53;;;;;;;17.50;15.68;;;;;;;24.81;51.63;100890.34;5074741;28;20032;-76
2022/08/14 08:19:18;;;;;;;17.92;15.32;;;;;;;24.81;51.11;100893.81;5074291;28;20120;-75
2022/08/14 08:21:44;;;;;;;16.88;14.48;;;;;;;24.88;50.92;100891.25;5074788;28;20043;-76
2022/08/14 08:24:10;;;;;;;19.25;15.50;;;;;;;24.78;51.01;100873.06;5074533;28;20055;-78
2022/08/14 08:26:35;;;;;;;17.40;14.60;;;;;;;24.90;49.89;100860.16;5074518;28;20068;-77
2022/08/14 08:29:00;;;;;;;22.85;16.10;;;;;;;25.03;50.17;100884.09;5074265;28;20017;-77
2022/08/14 08:31:26;;;;;;;16.38;13.57;;;;;;;25.17;50.25;100872.63;5074386;28;20138;-78
2022/08/14 08:33:52;;;;;;;16.67;13.32;;;;;;;25.23;51.11;100868.41;5073866;28;20050;-76
2022/08/14 08:36:18;;;;;;;16.63;14.77;;;;;;;25.28;50.10;100863.38;5074522;28;20074;-77
2022/08/14 08:38:44;;;;;;;16.98;14.07;;;;;;;25.34;50.13;100859.13;5056247;28;20391;-77
2022/08/14 08:41:10;;;;;;;17.73;14.38;;;;;;;25.41;49.08;100871.38;5056286;28;20031;-77
2022/08/14 08:43:36;;;;;;;15.98;12.88;;;;;;;25.51;48.39;100873.69;5074036;28;20058;-77
2022/08/14 08:46:04;;;;;;;19.73;13.82;;;;;;;25.58;48.21;100866.63;5074249;28;20025;-76
2022/08/14 08:48:42;;;;;;;16.63;14.57;;;;;;;25.46;48.87;100868.16;5073950;28;20025;-78
2022/08/14 08:51:08;;;;;;;15.18;13.05;;;;;;;25.59;48.43;100872.72;5073955;28;20050;-81
2022/08/14 08:53:35;;;;;;;17.77;14.35;;;;;;;25.54;48.43;100873.28;5074219;28;20051;-79
2022/08/14 08:56:02;;;;;;;17.38;14.30;;;;;;;25.56;48.92;100875.75;5073960;28;20464;-79
2022/08/14 08:58:27;;;;;;;16.63;13.30;;;;;;;25.59;47.96;100875.38;5073753;28;20154;-79
2022/08/14 09:00:56;;;;;;;15.90;12.10;;;;;;;25.61;48.22;100860.94;5073734;28;20103;-78
2022/08/14 09:03:25;;;;;;;15.98;12.95;;;;;;;25.68;47.91;100847.75;5073579;28;20107;-80
2022/08/14 09:05:51;;;;;;;13.95;11.55;;;;;;;25.92;47.39;100859.72;5056137;28;20029;-80
2022/08/14 09:08:29;;;;;;;13.68;12.25;;;;;;;25.97;48.21;100847.53;5073783;28;20044;-76
2022/08/14 09:10:55;;;;;;;17.13;12.15;;;;;;;26.18;47.57;100864.31;5073655;28;20101;-78
2022/08/14 09:13:24;;;;;;;12.65;11.30;;;;;;;26.25;46.19;100862.47;5073572;28;20024;-77
2022/08/14 09:15:52;;;;;;;13.35;10.48;;;;;;;26.45;46.30;100859.94;5073299;28;20066;-76
2022/08/14 09:18:18;;;;;;;13.68;10.88;;;;;;;26.48;45.76;100860.38;5073465;28;20040;-77
2022/08/14 09:20:47;;;;;;;13.40;11.75;;;;;;;26.26;44.70;100829.72;5073618;28;20025;-78
2022/08/14 09:23:13;;;;;;;12.32;10.65;;;;;;;26.17;46.12;100809.75;5072871;28;20422;-78
2022/08/14 09:25:41;;;;;;;14.20;10.85;;;;;;;26.41;45.44;100822.44;5073440;28;20036;-78
2022/08/14 09:28:08;;;;;;;14.32;11.95;;;;;;;26.50;44.76;100845.09;5073361;28;20052;-78
2022/08/14 09:30:37;;;;;;;13.13;10.45;;;;;;;26.46;45.26;100830.63;5072878;28;20387;-78
2022/08/14 09:33:11;;;;;;;12.88;10.27;;;;;;;26.72;46.50;100843.06;5072971;28;21129;-77
2022/08/14 09:36:01;;;;;;;14.75;10.85;;;;;;;26.95;45.45;100842.72;5073380;28;20024;-77
2022/08/14 09:38:58;;;;;;;12.82;11.43;;;;;;;26.94;45.34;100835.78;5055311;28;20052;-77
2022/08/14 09:41:44;;;;;;;13.73;11.98;;;;;;;26.95;45.18;100833.94;5072763;28;20032;-77
2022/08/14 09:44:32;;;;;;;14.20;12.45;;;;;;;26.92;45.23;100829.84;5072916;28;20028;-77
2022/08/14 09:46:58;;;;;;;16.92;13.73;;;;;;;26.86;45.27;100828.03;5073072;28;20025;-77
2022/08/14 09:49:36;;;;;;;13.93;11.85;;;;;;;26.95;47.09;100833.94;5073019;28;20017;-77
2022/08/14 09:52:09;;;;;;;13.02;11.10;;;;;;;26.99;46.11;100820.06;5072876;28;20043;-77
2022/08/14 09:54:43;;;;;;;13.48;10.75;;;;;;;26.98;45.89;100802.53;5073140;28;20024;-76
2022/08/14 09:57:12;;;;;;;12.60;10.20;;;;;;;27.18;43.87;100817.63;5073013;28;20024;-77
2022/08/14 09:59:40;;;;;;;12.60;9.63;;;;;;;27.21;44.44;100811.91;5072624;28;20073;-76
2022/08/14 10:02:20;;;;;;;12.65;10.25;;;;;;;27.37;44.80;100806.19;5072540;28;20035;-76
2022/08/14 10:04:57;;;;;;;13.38;11.55;;;;;;;27.40;44.41;100803.13;5072808;28;20029;-77
2022/08/14 10:07:30;;;;;;;15.52;11.65;;;;;;;27.33;43.92;100787.22;5070836;28;20032;-75
2022/08/14 10:09:55;;;;;;;12.27;9.98;;;;;;;27.54;43.75;100793.31;5072879;28;20024;-74
2022/08/14 10:12:21;;;;;;;15.65;10.18;;;;;;;27.66;44.40;100786.34;5072549;28;20039;-73
2022/08/14 10:14:46;;;;;;;13.93;10.68;;;;;;;27.67;43.43;100782.66;5072524;28;20453;-74
2022/08/14 10:17:25;;;;;;;12.40;10.88;;;;;;;27.79;43.88;100782.81;5072523;28;20051;-74
2022/08/14 10:19:51;;;;;;;13.18;10.95;;;;;;;27.85;43.41;100785.47;5072482;28;20025;-75
2022/08/14 10:22:27;;;;;;;12.88;11.15;;;;;;;27.88;43.57;100781.56;5072781;28;20035;-76
2022/08/14 10:24:52;;;;;;;11.68;10.48;;;;;;;27.95;43.18;100777.03;5072775;28;20525;-76
2022/08/14 10:27:24;;;;;;;14.90;10.20;;;;;;;28.02;42.54;100772.50;5072536;28;20024;-75
2022/08/14 10:29:54;;;;;;;12.48;9.50;;;;;;;28.11;42.06;100770.41;5072369;28;20017;-76
2022/08/14 10:32:21;;;;;;;14.23;9.43;;;;;;;28.19;42.01;100764.84;5072774;28;20068;-74
2022/08/14 10:34:47;;;;;;;12.45;9.23;;;;;;;28.23;41.52;100760.75;5076489;28;20119;-76
2022/08/14 10:37:15;;;;;;;12.40;9.13;;;;;;;28.27;41.84;100765.41;5076632;28;20056;-76
2022/08/14 10:39:57;;;;;;;13.30;9.02;;;;;;;28.33;41.33;100757.66;5077057;28;20056;-74
2022/08/14 10:42:22;;;;;;;10.07;8.20;;;;;;;28.44;42.42;100751.66;5076443;28;20033;-76
2022/08/14 10:44:49;;;;;;;11.38;9.23;;;;;;;28.32;39.98;100730.28;5076404;28;20073;-74
2022/08/14 10:47:17;;;;;;;13.98;9.15;;;;;;;28.44;40.99;100747.16;5076096;28;20460;-75
2022/08/14 10:49:57;;;;;;;11.10;8.38;;;;;;;28.49;41.24;100733.19;5076303;28;20036;-77
2022/08/14 10:52:26;;;;;;;10.13;7.88;;;;;;;28.70;40.37;100730.16;5058772;28;20396;-75
2022/08/14 10:55:06;;;;;;;13.23;9.45;;;;;;;28.58;40.02;100713.31;5076031;28;20403;-74
2022/08/14 10:57:34;;;;;;;14.00;9.25;;;;;;;28.75;39.60;100724.19;5076349;28;20464;-77
2022/08/14 11:00:12;;;;;;;10.15;8.55;;;;;;;28.92;39.91;100741.25;5076095;28;20468;-77
2022/08/14 11:02:39;;;;;;;13.15;8.73;;;;;;;29.06;40.15;100737.41;5076059;28;20040;-76
2022/08/14 11:05:13;;;;;;;8.90;7.90;;;;;;;29.13;38.58;100732.03;5076091;28;20027;-76
2022/08/14 11:07:53;;;;;;;9.73;8.00;;;;;;;29.19;38.28;100722.34;5075805;28;20111;-77
2022/08/14 11:10:19;;;;;;;10.60;8.55;;;;;;;28.95;38.63;100689.47;5076269;28;20103;-77
2022/08/14 11:12:48;;;;;;;10.38;7.78;;;;;;;29.11;37.43;100716.31;5076042;28;20021;-77
2022/08/14 11:15:19;;;;;;;8.43;7.03;;;;;;;29.04;37.87;100701.44;5075852;28;20025;-77
2022/08/14 11:17:46;;;;;;;;;;;;;;;29.25;38.72;100730.25;5076215;28;20499;-77
2022/08/14 11:20:13;;;;;;;9.80;7.07;;;;;;;29.36;38.08;100731.38;5075903;28;20354;-76
2022/08/14 11:22:42;;;;;;;7.88;6.65;;;;;;;29.34;35.58;100731.59;5075644;28;20021;-75
2022/08/14 11:25:11;;;;;;;9.73;8.02;;;;;;;29.39;37.53;100729.06;5075676;28;20047;-77
2022/08/14 11:27:38;;;;;;;10.48;7.85;;;;;;;29.42;37.75;100725.97;5075519;28;20031;-77
2022/08/14 11:30:08;;;;;;;11.93;7.72;;;;;;;29.41;36.39;100723.53;5075712;28;20451;-77